Wednesday, November 26, 2014
02:50 UTC
  |  Log In   |  Register Free
Airport Search:

Fairfield County Airport
(KFDW)

Fairfield County Airport Diagram
No Airport Diagram Available

FAA data valid effective November 13, 2014 - January 08, 2015 (unless otherwise noted).

 
 
 
 
 
 
 
 
 
 
 
 
 
 

Current Aviation Weather for Fairfield County Airport (KFDW)

The most recent METAR observation for KFDW was updated at: 0120
METAR Summary (Translated METAR)
KFDW
260115Z AUTO 00000KT 4SM RA CLR 13/13 A3003 RMK AO1
KCUB
260053Z AUTO 00000KT 8SM -RA BKN085 OVC100 14/13 A3004 RMK AO2 RAB46 SLP172 P0000 T01440128
(21.5 nm SE from KFDW)
KCAE
260056Z 00000KT 9SM -RA FEW080 OVC110 14/12 A3002 RMK AO2 RAB38 SLP166 P0001 T01440122
(22.6 nm SW from KFDW)
TAF Summary (Translated TAF)
KCUB
(21.5 nm SE from KFDW)
252134Z 2522/2618 VRB04KT P6SM -RA SCT035 OVC090 FM260200 35006KT 4SM -RA BR OVC015 FM260700 33010KT 3SM -RA BR OVC007 FM261400 31009KT 5SM -RA BR OVC015 FM261700 30010KT P6SM OVC035
KCAE
(22.6 nm SW from KFDW)
252133Z 2522/2618 VRB05KT P6SM VCSH SCT035 OVC090 FM260200 35006KT 4SM -RA BR OVC015 FM260700 33010KT 3SM -RA BR OVC007 FM261400 31009KT 5SM -RA BR OVC015 FM261700 30010KT P6SM OVC035
  Airport Weather Conditions for KFDW

 Current Weather at FDW
55° F
Light Drizzle
Northeast winds at 3.5 mph
FDW NOAA Radar

Pressure: 30.04 in
Humidity: 100%
Wind: Northeast at 3.5 MPH (3 KT)
Dew Point: 55.4°F
Visibility: 5.00 mi


Airport Weather Forecast for KFDW

Translated METAR and TAF for KFDW
Translated METAR for KFDW (0245 UTC 26 November 2014)
found at http://aviationweather.gov/adds/metars/
 
METAR text: KFDW 260255Z AUTO 35004KT 7SM -RA SCT006 SCT011 BKN040 12/12 A3003 RMK AO1
Conditions at: KFDW (WINNSBORO , SC, US) observed 0255 UTC 26 November 2014
Temperature: 12.0°C (54°F)
Dewpoint: 12.0°C (54°F) [RH = 100%]
Pressure (altimeter): 30.03 inches Hg (1017.0 mb)
Winds: from the N (350 degrees) at 5 MPH (4 knots; 2.1 m/s)
Visibility: 7 miles (11 km)
Ceiling: 4000 feet AGL
Clouds: scattered clouds at 600 feet AGL
scattered clouds at 1100 feet AGL
broken clouds at 4000 feet AGL
Weather: -RA  (light rain)
Translated TAF for KFDW

There is no translated TAF available for this airport

Find All Airport Services Find A Hotel Find A Rental Car Find A Golf Course Find A Restaurant $100 Hamburger



FBO's on the Field
FBO Company Facility Photos Services Transportation Aviation Fuel Prices: Prices include tax
Catering Weather Repair Courtesy Rental Type 100LL JetA JetA+ MOGAS 8087
 
S & S Aviation Services

This FBO has not yet been rated
FS:Shell
Last Updated: Nov-13
Login to update fuel prices
SS:
Contact S & S Aviation ServicesMore FBO Information
 
Add another FBO Facility Photos Catering Weather Repair Courtesy Rental Type 100LL JetA JetA+ MOGAS 8087
Services Transportation Aviation Fuel Prices: Prices include tax


model-print
model-print
model-print
model-print